createdAt,value
2023-04-28T00:00:27.538Z,5.80
2023-04-28T00:02:56.909Z,5.79
2023-04-28T00:05:26.050Z,5.74
2023-04-28T00:07:56.541Z,5.83
2023-04-28T00:10:25.696Z,5.81
2023-04-28T00:12:54.659Z,5.86
2023-04-28T00:15:23.875Z,5.70
2023-04-28T00:17:53.679Z,5.75
2023-04-28T00:20:22.942Z,5.84
2023-04-28T00:22:52.076Z,5.89
2023-04-28T00:25:22.454Z,5.92
2023-04-28T00:27:51.638Z,5.80
2023-04-28T00:30:21.051Z,5.72
2023-04-28T00:32:50.574Z,5.78
2023-04-28T00:35:19.855Z,5.66
2023-04-28T00:37:48.908Z,5.61
2023-04-28T00:40:18.221Z,5.54
2023-04-28T00:42:48.796Z,5.52
2023-04-28T00:45:17.857Z,5.48
2023-04-28T00:47:47.045Z,5.43
2023-04-28T00:50:17.950Z,5.51
2023-04-28T00:52:47.177Z,5.52
2023-04-28T00:55:17.437Z,5.64
2023-04-28T00:57:48.463Z,5.71
2023-04-28T01:00:18.230Z,5.76
2023-04-28T01:02:47.348Z,5.75
2023-04-28T01:05:16.824Z,5.85
2023-04-28T01:07:46.473Z,5.86
2023-04-28T01:10:15.614Z,5.91
2023-04-28T01:12:44.740Z,5.89
2023-04-28T01:15:18.289Z,5.79
2023-04-28T01:17:48.954Z,5.62
2023-04-28T01:20:18.405Z,5.60
2023-04-28T01:22:47.610Z,5.42
2023-04-28T01:25:18.818Z,5.44
2023-04-28T01:27:48.863Z,5.31
2023-04-28T01:30:17.991Z,5.10
2023-04-28T01:32:47.191Z,4.95
2023-04-28T01:35:16.496Z,4.75
2023-04-28T01:37:46.153Z,4.55
2023-04-28T01:40:15.530Z,4.42
2023-04-28T01:42:46.166Z,4.25
2023-04-28T01:45:15.554Z,4.18
2023-04-28T01:47:45.056Z,4.03
2023-04-28T01:50:15.307Z,4.05
2023-04-28T01:52:44.553Z,3.92
2023-04-28T01:55:13.551Z,3.92
2023-04-28T01:57:43.536Z,3.87
2023-04-28T02:00:18.246Z,3.90
2023-04-28T02:02:53.842Z,3.86
2023-04-28T02:05:22.987Z,3.86
2023-04-28T02:07:53.865Z,3.84
2023-04-28T02:10:23.021Z,3.84
2023-04-28T02:12:52.027Z,3.84
2023-04-28T02:15:23.925Z,3.81
2023-04-28T02:17:53.061Z,3.87
2023-04-28T02:20:22.333Z,3.89
2023-04-28T02:22:51.450Z,3.90
2023-04-28T02:25:21.307Z,3.88
2023-04-28T02:27:50.311Z,3.93
2023-04-28T02:30:19.510Z,3.94
2023-04-28T02:32:50.184Z,3.94
2023-04-28T02:35:19.570Z,3.93
2023-04-28T02:37:48.946Z,3.88
2023-04-28T02:40:18.097Z,3.88
2023-04-28T02:42:47.310Z,3.80
2023-04-28T02:45:16.573Z,3.81
2023-04-28T02:47:45.715Z,3.77
2023-04-28T02:50:16.363Z,3.74
2023-04-28T02:52:47.086Z,3.78
2023-04-28T02:55:24.357Z,3.81
2023-04-28T02:57:55.080Z,3.82
2023-04-28T03:00:24.424Z,3.75
2023-04-28T03:02:55.057Z,3.75
2023-04-28T03:05:25.930Z,3.75
2023-04-28T03:07:55.084Z,3.71
2023-04-28T03:10:24.617Z,3.78
2023-04-28T03:12:53.972Z,3.73
2023-04-28T03:15:23.062Z,3.67
2023-04-28T03:17:52.091Z,3.65
2023-04-28T03:20:21.323Z,3.54
2023-04-28T03:22:51.996Z,3.60
2023-04-28T03:25:21.549Z,3.52
2023-04-28T03:27:54.134Z,3.52
2023-04-28T03:30:24.546Z,3.53
2023-04-28T03:32:53.900Z,3.51
2023-04-28T03:35:23.202Z,3.56
2023-04-28T03:37:53.767Z,3.59
2023-04-28T03:40:23.260Z,3.57
2023-04-28T03:43:12.653Z,3.62
2023-04-28T03:46:03.049Z,3.52
2023-04-28T03:48:32.323Z,3.44
2023-04-28T03:51:01.533Z,3.40
2023-04-28T03:53:32.422Z,3.37
2023-04-28T03:56:01.697Z,3.32
2023-04-28T03:58:30.763Z,3.38
2023-04-28T04:01:01.195Z,3.37
2023-04-28T04:03:30.672Z,3.38
2023-04-28T04:06:00.612Z,3.44
2023-04-28T04:08:29.801Z,3.45
2023-04-28T04:11:00.388Z,3.50
2023-04-28T04:13:29.625Z,3.51
2023-04-28T04:15:58.947Z,3.47
2023-04-28T04:18:29.550Z,3.46
2023-04-28T04:21:12.103Z,3.49
2023-04-28T04:23:42.276Z,3.57
2023-04-28T04:26:12.958Z,3.67
2023-04-28T04:28:42.207Z,3.74
2023-04-28T04:31:12.694Z,3.85
2023-04-28T04:33:42.371Z,3.90
2023-04-28T04:36:12.248Z,3.99
2023-04-28T04:38:41.736Z,4.10
2023-04-28T04:41:18.689Z,4.19
2023-04-28T04:43:48.149Z,4.32
2023-04-28T04:46:20.519Z,4.39
2023-04-28T04:48:50.021Z,4.41
2023-04-28T04:51:19.554Z,4.54
2023-04-28T04:53:49.461Z,4.69
2023-04-28T04:56:20.338Z,4.88
2023-04-28T04:58:49.636Z,5.06
2023-04-28T05:01:39.091Z,5.23
2023-04-28T05:04:08.352Z,5.40
2023-04-28T05:06:38.522Z,5.55
2023-04-28T05:09:08.281Z,5.74
2023-04-28T05:11:39.160Z,5.92
2023-04-28T05:14:08.394Z,6.05
2023-04-28T05:16:37.705Z,6.28
2023-04-28T05:19:18.106Z,6.45
2023-04-28T05:21:48.585Z,6.66
2023-04-28T05:24:17.813Z,6.84
2023-04-28T05:26:48.748Z,7.00
2023-04-28T05:29:17.819Z,7.20
2023-04-28T05:31:46.927Z,7.34
2023-04-28T05:34:17.567Z,7.41
2023-04-28T05:36:47.160Z,7.60
2023-04-28T05:39:16.561Z,7.61
2023-04-28T05:41:45.644Z,7.71
2023-04-28T05:44:16.734Z,7.78
2023-04-28T05:46:48.419Z,7.77
2023-04-28T05:49:20.877Z,8.01
2023-04-28T05:51:50.078Z,8.01
2023-04-28T05:54:19.401Z,8.00
2023-04-28T05:56:51.947Z,8.14
2023-04-28T05:59:22.496Z,8.14
2023-04-28T06:01:52.268Z,8.16
2023-04-28T06:04:22.345Z,8.40
2023-04-28T06:06:52.820Z,8.49
2023-04-28T06:09:22.230Z,8.58
2023-04-28T06:11:51.322Z,8.69
2023-04-28T06:14:22.240Z,8.92
2023-04-28T06:16:52.406Z,8.92
2023-04-28T06:19:21.839Z,9.03
2023-04-28T06:21:52.946Z,9.08
2023-04-28T06:24:22.634Z,9.32
2023-04-28T06:26:55.616Z,9.32
2023-04-28T06:29:28.122Z,9.33
2023-04-28T06:31:58.072Z,9.46
2023-04-28T06:34:29.144Z,9.60
2023-04-28T06:37:00.368Z,9.59
2023-04-28T06:39:29.536Z,9.77
2023-04-28T06:41:58.733Z,9.87
2023-04-28T06:44:31.799Z,9.99
2023-04-28T06:47:01.960Z,10.34
2023-04-28T06:49:32.273Z,10.38
2023-04-28T06:52:03.055Z,10.51
2023-04-28T06:54:32.760Z,10.57
2023-04-28T06:57:02.411Z,10.53
2023-04-28T06:59:33.185Z,10.72
2023-04-28T07:02:02.503Z,10.87
2023-04-28T07:04:31.637Z,10.96
2023-04-28T07:07:00.772Z,11.05
2023-04-28T07:09:31.470Z,11.22
2023-04-28T07:12:00.937Z,11.48
2023-04-28T07:14:30.154Z,11.80
2023-04-28T07:17:01.938Z,11.90
2023-04-28T07:19:31.156Z,11.84
2023-04-28T07:22:00.288Z,11.99
2023-04-28T07:24:29.663Z,12.04
2023-04-28T07:26:58.988Z,12.13
2023-04-28T07:29:33.990Z,12.16
2023-04-28T07:32:06.843Z,12.23
2023-04-28T07:34:36.956Z,12.31
2023-04-28T07:37:07.064Z,12.12
2023-04-28T07:39:37.042Z,12.27
2023-04-28T07:42:06.317Z,12.48
2023-04-28T07:44:35.420Z,12.68
2023-04-28T07:47:06.242Z,12.93
2023-04-28T07:49:35.371Z,13.23
2023-04-28T07:52:04.583Z,13.31
2023-04-28T07:54:35.731Z,13.42
2023-04-28T07:57:06.523Z,13.42
2023-04-28T07:59:36.039Z,13.37
2023-04-28T08:02:06.985Z,13.55
2023-04-28T08:04:40.635Z,13.50
2023-04-28T08:07:10.913Z,13.69
2023-04-28T08:09:41.755Z,13.83
2023-04-28T08:12:11.250Z,13.90
2023-04-28T08:14:40.569Z,13.85
2023-04-28T08:17:11.208Z,13.76
2023-04-28T08:19:40.416Z,14.11
2023-04-28T08:22:09.679Z,14.34
2023-04-28T08:24:38.729Z,14.59
2023-04-28T08:27:08.512Z,14.68
2023-04-28T08:29:38.013Z,14.67
2023-04-28T08:32:07.338Z,14.66
2023-04-28T08:34:37.825Z,14.81
2023-04-28T08:37:07.909Z,15.03
2023-04-28T08:39:37.178Z,15.09
2023-04-28T08:42:06.711Z,15.14
2023-04-28T08:44:40.058Z,15.19
2023-04-28T08:47:14.638Z,15.22
2023-04-28T08:49:46.068Z,15.45
2023-04-28T08:52:19.085Z,15.48
2023-04-28T08:54:51.024Z,15.52
2023-04-28T08:57:22.303Z,15.78
2023-04-28T08:59:51.841Z,15.63
2023-04-28T09:02:21.870Z,15.59
2023-04-28T09:04:52.811Z,15.51
2023-04-28T09:07:23.484Z,15.77
2023-04-28T09:09:52.705Z,15.44
2023-04-28T09:12:24.409Z,15.49
2023-04-28T09:15:01.787Z,15.59
2023-04-28T09:17:32.561Z,16.00
2023-04-28T09:20:04.747Z,16.17
2023-04-28T09:22:35.570Z,16.22
2023-04-28T09:25:13.428Z,16.46
2023-04-28T09:27:42.738Z,16.53
2023-04-28T09:30:12.655Z,16.41
2023-04-28T09:32:41.985Z,16.68
2023-04-28T09:35:12.698Z,16.64
2023-04-28T09:37:43.616Z,16.78
2023-04-28T09:40:13.549Z,16.87
2023-04-28T09:42:43.886Z,16.94
2023-04-28T09:45:14.261Z,17.37
2023-04-28T09:47:44.781Z,17.45
2023-04-28T09:50:17.591Z,17.49
2023-04-28T09:52:49.330Z,17.48
2023-04-28T09:55:20.635Z,17.32
2023-04-28T09:57:51.354Z,17.24
2023-04-28T10:00:21.837Z,17.63
2023-04-28T10:02:53.114Z,17.73
2023-04-28T10:05:25.877Z,17.84
2023-04-28T10:07:55.817Z,18.17
2023-04-28T10:10:27.510Z,18.10
2023-04-28T10:12:57.207Z,18.22
2023-04-28T10:15:26.334Z,18.00
2023-04-28T10:17:56.972Z,18.39
2023-04-28T10:20:28.897Z,18.36
2023-04-28T10:23:08.072Z,18.16
2023-04-28T10:25:39.382Z,18.26
2023-04-28T10:28:10.620Z,18.45
2023-04-28T10:30:39.918Z,18.50
2023-04-28T10:33:27.204Z,18.33
2023-04-28T10:35:58.098Z,18.44
2023-04-28T10:38:27.394Z,18.54
2023-04-28T10:41:01.319Z,17.98
2023-04-28T10:43:40.932Z,18.60
2023-04-28T10:46:12.090Z,18.81
2023-04-28T10:49:08.605Z,18.66
2023-04-28T10:51:39.125Z,18.48
2023-04-28T10:54:19.606Z,18.93
2023-04-28T10:57:23.090Z,18.68
2023-04-28T10:59:52.913Z,18.74
2023-04-28T11:02:44.804Z,18.41
2023-04-28T11:05:21.039Z,18.94
2023-04-28T11:08:30.292Z,19.06
2023-04-28T11:11:31.021Z,19.20
2023-04-28T11:14:33.544Z,19.24
2023-04-28T11:17:04.680Z,19.16
2023-04-28T11:19:35.360Z,19.15
2023-04-28T11:22:05.479Z,19.37
2023-04-28T11:24:34.889Z,19.34
2023-04-28T11:27:05.445Z,19.43
2023-04-28T11:29:36.233Z,19.66
2023-04-28T11:32:06.069Z,19.75
2023-04-28T11:34:35.963Z,19.96
2023-04-28T11:37:06.102Z,19.90
2023-04-28T11:39:36.172Z,19.83
2023-04-28T11:42:12.709Z,19.98
2023-04-28T11:44:41.911Z,20.17
2023-04-28T11:47:11.152Z,20.45
2023-04-28T11:49:47.227Z,20.61
2023-04-28T11:52:16.152Z,20.89
2023-04-28T11:54:45.149Z,21.15
2023-04-28T11:57:21.376Z,21.35
2023-04-28T11:59:51.375Z,21.70
2023-04-28T12:02:29.998Z,22.27
2023-04-28T12:05:08.102Z,22.45
2023-04-28T12:07:44.038Z,22.46
2023-04-28T12:10:16.184Z,22.98
2023-04-28T12:12:52.443Z,23.03
2023-04-28T12:15:25.004Z,23.10
2023-04-28T12:17:54.339Z,23.03
2023-04-28T12:20:37.037Z,23.46
2023-04-28T12:23:08.710Z,23.65
2023-04-28T12:25:45.889Z,24.17
2023-04-28T12:28:16.448Z,24.55
2023-04-28T12:30:45.836Z,24.16
2023-04-28T12:33:25.479Z,24.72
2023-04-28T12:35:55.535Z,24.48
2023-04-28T12:38:24.850Z,24.95
2023-04-28T12:40:54.116Z,24.87
2023-04-28T12:43:25.060Z,25.11
2023-04-28T12:45:55.904Z,25.18
2023-04-28T12:48:25.667Z,25.20
2023-04-28T12:50:54.912Z,25.09
2023-04-28T12:53:24.072Z,25.19
2023-04-28T12:55:53.499Z,25.94
2023-04-28T12:58:24.069Z,25.82
2023-04-28T13:00:53.578Z,24.33
2023-04-28T13:03:23.021Z,25.14
2023-04-28T13:05:55.147Z,25.33
2023-04-28T13:08:24.207Z,24.55
2023-04-28T13:10:53.395Z,24.38
2023-04-28T13:13:24.033Z,24.78
2023-04-28T13:15:53.243Z,24.85
2023-04-28T13:18:23.745Z,24.39
2023-04-28T13:20:53.018Z,24.57
2023-04-28T13:23:22.461Z,23.72
2023-04-28T13:25:52.323Z,22.91
2023-04-28T13:28:21.443Z,21.57
2023-04-28T13:30:52.409Z,20.85
2023-04-28T13:33:21.807Z,20.34
2023-04-28T13:35:51.416Z,20.11
2023-04-28T13:38:21.676Z,19.49
2023-04-28T13:40:50.934Z,19.28
2023-04-28T13:43:19.917Z,18.96
2023-04-28T13:45:49.384Z,19.06
2023-04-28T13:48:19.995Z,18.98
2023-04-28T13:50:49.233Z,18.76
2023-04-28T13:53:18.191Z,18.61
2023-04-28T13:55:49.960Z,18.62
2023-04-28T13:58:19.497Z,18.47
2023-04-28T14:00:48.608Z,18.45
2023-04-28T14:03:17.881Z,18.44
2023-04-28T14:05:49.983Z,18.45
2023-04-28T14:08:20.614Z,18.33
2023-04-28T14:10:50.902Z,18.23
2023-04-28T14:13:20.545Z,18.04
2023-04-28T14:15:58.645Z,17.99
2023-04-28T14:18:29.282Z,18.22
2023-04-28T14:20:59.909Z,18.02
2023-04-28T14:23:29.353Z,17.98
2023-04-28T14:25:58.515Z,17.91
2023-04-28T14:28:27.843Z,17.74
2023-04-28T14:30:57.064Z,17.77
2023-04-28T14:33:26.242Z,17.67
2023-04-28T14:35:55.461Z,17.66
2023-04-28T14:38:26.114Z,17.67
2023-04-28T14:40:55.266Z,17.69
2023-04-28T14:43:25.039Z,17.55
2023-04-28T14:45:54.739Z,17.52
2023-04-28T14:48:24.159Z,17.42
2023-04-28T14:50:53.358Z,17.40
2023-04-28T14:53:22.665Z,17.22
2023-04-28T14:55:54.609Z,17.12
2023-04-28T14:58:25.771Z,17.02
2023-04-28T15:00:55.050Z,17.21
2023-04-28T15:03:24.306Z,17.26
2023-04-28T15:05:54.781Z,17.35
2023-04-28T15:08:24.002Z,17.09
2023-04-28T15:10:54.554Z,17.09
2023-04-28T15:13:25.396Z,17.03
2023-04-28T15:15:54.651Z,16.92
2023-04-28T15:18:25.190Z,16.87
2023-04-28T15:20:54.362Z,16.76
2023-04-28T15:23:23.354Z,16.78
2023-04-28T15:25:54.318Z,16.57
2023-04-28T15:28:24.003Z,16.51
2023-04-28T15:30:53.518Z,16.26
2023-04-28T15:33:22.872Z,16.31
2023-04-28T15:35:52.185Z,16.25
2023-04-28T15:38:21.264Z,16.13
2023-04-28T15:40:50.407Z,16.11
2023-04-28T15:43:21.035Z,16.07
2023-04-28T15:45:50.343Z,16.05
2023-04-28T15:48:19.670Z,16.16
2023-04-28T15:50:48.749Z,16.20
2023-04-28T15:53:18.739Z,15.95
2023-04-28T15:55:48.011Z,15.95
2023-04-28T15:58:17.335Z,15.85
2023-04-28T16:00:48.804Z,15.71
2023-04-28T16:03:18.091Z,15.79
2023-04-28T16:05:48.116Z,15.72
2023-04-28T16:08:17.184Z,15.54
2023-04-28T16:10:46.580Z,15.54
2023-04-28T16:13:15.707Z,15.47
2023-04-28T16:15:46.119Z,15.40
2023-04-28T16:18:17.667Z,15.38
2023-04-28T16:20:46.920Z,15.35
2023-04-28T16:23:15.988Z,15.37
2023-04-28T16:25:45.306Z,15.19
2023-04-28T16:28:14.423Z,15.15
2023-04-28T16:30:45.190Z,15.06
2023-04-28T16:33:14.326Z,15.07
2023-04-28T16:35:45.289Z,15.01
2023-04-28T16:38:14.759Z,15.00
2023-04-28T16:40:43.899Z,14.87
2023-04-28T16:43:12.948Z,14.95
2023-04-28T16:45:42.453Z,14.80
2023-04-28T16:48:11.902Z,14.68
2023-04-28T16:50:41.351Z,14.61
2023-04-28T16:53:12.238Z,14.68
2023-04-28T16:55:41.305Z,14.50
2023-04-28T16:58:10.730Z,14.52
2023-04-28T17:00:39.824Z,14.46
2023-04-28T17:03:09.487Z,14.29
2023-04-28T17:05:38.891Z,14.36
2023-04-28T17:08:08.178Z,14.35
2023-04-28T17:10:40.209Z,14.15
2023-04-28T17:13:10.193Z,14.05
2023-04-28T17:15:40.232Z,14.01
2023-04-28T17:18:09.410Z,14.01
2023-04-28T17:20:38.677Z,13.93
2023-04-28T17:23:07.951Z,13.92
2023-04-28T17:25:40.665Z,13.81
2023-04-28T17:28:10.005Z,13.73
2023-04-28T17:30:40.785Z,13.67
2023-04-28T17:33:11.504Z,13.62
2023-04-28T17:35:40.799Z,13.55
2023-04-28T17:38:10.184Z,13.56
2023-04-28T17:40:40.862Z,13.47
2023-04-28T17:43:10.130Z,13.49
2023-04-28T17:45:39.303Z,13.41
2023-04-28T17:48:08.983Z,13.47
2023-04-28T17:50:38.238Z,13.34
2023-04-28T17:53:07.686Z,13.30
2023-04-28T17:55:37.009Z,13.35
2023-04-28T17:58:07.584Z,13.26
2023-04-28T18:00:37.112Z,13.21
2023-04-28T18:03:06.884Z,13.20
2023-04-28T18:05:36.383Z,13.17
2023-04-28T18:08:05.771Z,13.18
2023-04-28T18:10:35.753Z,13.11
2023-04-28T18:13:07.382Z,13.07
2023-04-28T18:15:36.952Z,13.00
2023-04-28T18:18:06.181Z,12.89
2023-04-28T18:20:35.284Z,12.81
2023-04-28T18:23:04.847Z,12.72
2023-04-28T18:25:34.123Z,12.66
2023-04-28T18:28:03.914Z,12.67
2023-04-28T18:30:39.664Z,12.66
2023-04-28T18:33:10.045Z,12.49
2023-04-28T18:35:39.512Z,12.50
2023-04-28T18:38:08.972Z,12.35
2023-04-28T18:40:40.041Z,12.35
2023-04-28T18:43:10.976Z,12.27
2023-04-28T18:45:43.384Z,12.25
2023-04-28T18:48:13.331Z,12.23
2023-04-28T18:50:42.867Z,12.04
2023-04-28T18:53:12.756Z,11.97
2023-04-28T18:55:42.102Z,11.87
2023-04-28T18:58:12.018Z,11.64
2023-04-28T19:00:45.657Z,11.54
2023-04-28T19:03:15.882Z,11.46
2023-04-28T19:05:46.585Z,11.46
2023-04-28T19:08:16.998Z,11.39
2023-04-28T19:10:48.156Z,11.49
2023-04-28T19:13:17.899Z,11.19
2023-04-28T19:15:48.716Z,11.08
2023-04-28T19:18:17.843Z,10.94
2023-04-28T19:20:47.004Z,10.95
2023-04-28T19:23:16.415Z,10.92
2023-04-28T19:25:45.856Z,10.88
2023-04-28T19:28:16.134Z,10.80
2023-04-28T19:30:49.276Z,10.70
2023-04-28T19:33:18.446Z,10.72
2023-04-28T19:35:50.625Z,10.53
2023-04-28T19:38:23.378Z,10.51
2023-04-28T19:41:01.250Z,10.40
2023-04-28T19:43:31.056Z,10.40
2023-04-28T19:46:06.274Z,10.29
2023-04-28T19:48:35.600Z,9.98
2023-04-28T19:51:07.941Z,9.89
2023-04-28T19:53:41.487Z,9.79
2023-04-28T19:56:17.209Z,9.66
2023-04-28T19:58:46.405Z,9.38
2023-04-28T20:01:20.251Z,9.39
2023-04-28T20:03:52.549Z,9.29
2023-04-28T20:06:28.228Z,9.28
2023-04-28T20:08:57.680Z,9.33
2023-04-28T20:11:26.741Z,9.31
2023-04-28T20:13:56.024Z,9.15
2023-04-28T20:16:27.346Z,8.99
2023-04-28T20:18:56.559Z,8.97
2023-04-28T20:21:27.636Z,8.96
2023-04-28T20:23:56.903Z,8.96
2023-04-28T20:26:25.921Z,8.84
2023-04-28T20:28:57.343Z,8.81
2023-04-28T20:31:27.994Z,8.62
2023-04-28T20:33:57.700Z,8.35
2023-04-28T20:36:27.487Z,8.18
2023-04-28T20:38:56.936Z,8.11
2023-04-28T20:41:28.591Z,8.07
2023-04-28T20:43:57.762Z,8.23
2023-04-28T20:46:28.445Z,8.09
2023-04-28T20:48:57.655Z,8.07
2023-04-28T20:51:26.858Z,8.01
2023-04-28T20:53:56.483Z,8.03
2023-04-28T20:56:25.606Z,8.12
2023-04-28T20:58:54.853Z,8.01
2023-04-28T21:01:24.071Z,8.00
2023-04-28T21:03:54.889Z,7.94
2023-04-28T21:06:24.235Z,7.72
2023-04-28T21:08:53.505Z,7.71
2023-04-28T21:11:22.485Z,7.47
2023-04-28T21:13:51.650Z,7.43
2023-04-28T21:16:21.605Z,7.25
2023-04-28T21:18:51.863Z,7.11
2023-04-28T21:21:22.351Z,7.06
2023-04-28T21:23:51.575Z,7.05
2023-04-28T21:26:22.077Z,6.95
2023-04-28T21:28:51.308Z,6.99
2023-04-28T21:31:20.291Z,6.91
2023-04-28T21:33:50.180Z,6.97
2023-04-28T21:36:19.742Z,7.04
2023-04-28T21:38:50.297Z,6.98
2023-04-28T21:41:19.311Z,6.76
2023-04-28T21:43:48.572Z,6.70
2023-04-28T21:46:19.137Z,6.55
2023-04-28T21:48:48.589Z,6.46
2023-04-28T21:51:17.979Z,6.41
2023-04-28T21:53:48.050Z,6.49
2023-04-28T21:56:18.812Z,6.62
2023-04-28T21:58:47.896Z,6.57
2023-04-28T22:01:18.386Z,6.57
2023-04-28T22:03:48.901Z,6.46
2023-04-28T22:06:21.806Z,6.43
2023-04-28T22:08:53.197Z,6.29
2023-04-28T22:11:23.735Z,6.05
2023-04-28T22:13:52.789Z,5.93
2023-04-28T22:16:22.029Z,5.79
2023-04-28T22:18:51.233Z,5.64
2023-04-28T22:21:20.518Z,5.54
2023-04-28T22:23:49.499Z,5.47
2023-04-28T22:26:32.116Z,5.33
2023-04-28T22:29:02.400Z,5.24
2023-04-28T22:31:31.788Z,5.22
2023-04-28T22:34:02.229Z,5.36
2023-04-28T22:36:31.325Z,5.37
2023-04-28T22:39:00.537Z,5.32
2023-04-28T22:41:29.712Z,5.27
2023-04-28T22:44:00.371Z,5.26
2023-04-28T22:46:30.287Z,5.23
2023-04-28T22:48:59.324Z,5.17
2023-04-28T22:51:28.548Z,5.19
2023-04-28T22:53:57.684Z,5.14
2023-04-28T22:56:26.838Z,5.03
2023-04-28T22:58:56.404Z,4.93
2023-04-28T23:01:27.374Z,4.98
2023-04-28T23:03:56.648Z,5.01
2023-04-28T23:06:29.063Z,5.07
2023-04-28T23:08:58.512Z,5.10
2023-04-28T23:11:27.675Z,5.05
2023-04-28T23:13:57.091Z,5.01
2023-04-28T23:16:27.730Z,5.02
2023-04-28T23:18:56.940Z,5.01
2023-04-28T23:21:26.530Z,4.93
2023-04-28T23:23:55.674Z,4.98
2023-04-28T23:26:24.957Z,4.97
2023-04-28T23:28:54.128Z,4.98
2023-04-28T23:31:23.284Z,5.02
2023-04-28T23:33:53.901Z,4.97
2023-04-28T23:36:23.002Z,4.99
2023-04-28T23:38:52.053Z,4.99
2023-04-28T23:41:21.098Z,5.07
2023-04-28T23:43:50.182Z,5.20
2023-04-28T23:46:19.805Z,5.33
2023-04-28T23:48:49.325Z,5.37
2023-04-28T23:51:22.844Z,5.32
2023-04-28T23:53:52.525Z,5.22
2023-04-28T23:56:21.624Z,5.20
2023-04-28T23:58:51.366Z,5.08
